Ancram, New York
Current Conditions -  °F | °C
As of 8:53 PM on Saturday 22 Nov 2014 (Local Time) from KPOU Reporting Station
Overcast Overcast  
Wind Chill: 38°   Ceiling: 5500
Heat Index: 43°   Visibility: 10mi
Dew Point: 15°   Wind: 9mph
Humidity: 32%   Direction: 230°SW
Pressure: 30.18"   Gusts: 17mph
Location:  42.05°N, 73.64°W
Report Text: KPOU 230153Z AUTO 23008G15KT 10SM BKN055 OVC120 06/M09 A3018 RMK AO2 SLP217 T00611094 TSNO
Loading
Personal Weather Stations






























Interactive Weather Map New forecast layout! Learn more

10-Day Weather Forecast

Advertisements
Track Severe Weather on mobile